KLWB/LWB METAR and TAF weather

Enter ICAO airport designator
Station Type Date Time Source
KLWB METAR 2019/04/23 04:15 UTC NOAA

KLWB 230415Z AUTO 00000KT 10SM CLR 09/05 A3017 RMK AO2 T00900054


Station Type Date Time Source
KLWB Decoded METAR 2019/04/23 04:15 UTC NOAA

Lewisburg / Greenbrier, WV, United States (KLWB) 37-52N 080-24W
Apr 23, 2019 - 12:15 AM EDT / 2019.04.23 0415 UTC
Wind: Calm:0
Visibility: 10 mile(s):0
Sky conditions: clear
Temperature: 48.2 F (9.0 C)
Dew Point: 41.7 F (5.4 C)
Relative Humidity: 78%
Pressure (altimeter): 30.17 in. Hg (1021 hPa)
ob: KLWB 230415Z AUTO 00000KT 10SM CLR 09/05 A3017 RMK AO2 T00900054
cycle: 4

Station Type Date Time Source
KLWB TAF 2019/04/22 19:24 UTC NOAA

TAF
AMD KLWB 221923Z 2219/2318 32008KT P6SM SKC
FM230900 00000KT P6SM FEW150
FM231600 25007KT P6SM FEW200

Example: see airport list